createdAt,value
2019-06-27T00:00:05.759Z,15.40
2019-06-27T00:02:31.760Z,15.30
2019-06-27T00:04:57.747Z,15.40
2019-06-27T00:07:23.712Z,15.30
2019-06-27T00:09:49.708Z,15.20
2019-06-27T00:12:15.670Z,15.20
2019-06-27T00:14:41.668Z,15.20
2019-06-27T00:17:07.631Z,15.00
2019-06-27T00:19:34.331Z,15.10
2019-06-27T00:22:00.277Z,15.10
2019-06-27T00:24:27.019Z,15.00
2019-06-27T00:26:57.473Z,15.10
2019-06-27T00:29:19.766Z,15.10
2019-06-27T00:31:45.720Z,15.10
2019-06-27T00:34:11.705Z,15.10
2019-06-27T00:36:37.660Z,15.20
2019-06-27T00:39:03.682Z,15.20
2019-06-27T00:41:30.396Z,15.20
2019-06-27T00:43:57.141Z,15.20
2019-06-27T00:46:23.838Z,15.10
2019-06-27T00:48:49.838Z,15.00
2019-06-27T00:51:15.826Z,15.10
2019-06-27T00:53:42.546Z,15.00
2019-06-27T00:56:08.539Z,15.00
2019-06-27T00:58:34.510Z,15.00
2019-06-27T01:01:01.246Z,15.00
2019-06-27T01:03:27.200Z,15.00
2019-06-27T01:05:53.201Z,15.00
2019-06-27T01:08:19.927Z,15.00
2019-06-27T01:10:45.919Z,15.00
2019-06-27T01:13:11.881Z,15.00
2019-06-27T01:15:37.883Z,15.10
2019-06-27T01:18:03.858Z,15.10
2019-06-27T01:20:29.866Z,15.00
2019-06-27T01:22:55.840Z,14.90
2019-06-27T01:25:21.838Z,14.80
2019-06-27T01:27:47.800Z,14.90
2019-06-27T01:30:13.798Z,14.90
2019-06-27T01:32:39.791Z,14.80
2019-06-27T01:35:06.543Z,14.80
2019-06-27T01:37:32.499Z,14.80
2019-06-27T01:39:58.515Z,14.80
2019-06-27T01:42:24.493Z,14.80
2019-06-27T01:44:51.194Z,14.80
2019-06-27T01:47:17.181Z,14.70
2019-06-27T01:49:43.164Z,14.70
2019-06-27T01:52:09.902Z,14.70
2019-06-27T01:54:35.901Z,14.70
2019-06-27T01:57:01.901Z,14.80
2019-06-27T01:59:27.878Z,14.70
2019-06-27T02:01:54.635Z,14.80
2019-06-27T02:04:21.354Z,14.70
2019-06-27T02:06:47.336Z,14.80
2019-06-27T02:09:13.313Z,14.70
2019-06-27T02:11:40.068Z,14.70
2019-06-27T02:14:06.041Z,14.60
2019-06-27T02:16:32.015Z,14.60
2019-06-27T02:18:57.994Z,14.60
2019-06-27T02:21:23.996Z,14.50
2019-06-27T02:23:49.964Z,14.50
2019-06-27T02:26:16.704Z,14.40
2019-06-27T02:28:43.453Z,14.40
2019-06-27T02:31:10.196Z,14.40
2019-06-27T02:33:36.172Z,14.40
2019-06-27T02:36:02.170Z,14.40
2019-06-27T02:38:28.207Z,14.30
2019-06-27T02:40:58.527Z,14.40
2019-06-27T02:43:20.279Z,14.30
2019-06-27T02:45:46.291Z,14.20
2019-06-27T02:48:12.283Z,14.30
2019-06-27T02:50:38.286Z,14.30
2019-06-27T02:53:05.025Z,14.40
2019-06-27T02:55:31.029Z,14.40
2019-06-27T02:57:57.027Z,14.40
2019-06-27T03:00:23.001Z,14.40
2019-06-27T03:02:49.005Z,14.40
2019-06-27T03:05:14.987Z,14.40
2019-06-27T03:07:40.989Z,14.40
2019-06-27T03:10:06.962Z,14.40
2019-06-27T03:12:32.953Z,14.40
2019-06-27T03:14:58.932Z,14.20
2019-06-27T03:17:25.691Z,14.20
2019-06-27T03:19:51.657Z,14.20
2019-06-27T03:22:17.639Z,14.20
2019-06-27T03:24:43.627Z,14.20
2019-06-27T03:27:09.608Z,14.20
2019-06-27T03:29:36.324Z,14.30
2019-06-27T03:32:02.313Z,14.30
2019-06-27T03:34:28.395Z,14.30
2019-06-27T03:36:54.410Z,14.20
2019-06-27T03:39:20.401Z,14.30
2019-06-27T03:41:47.105Z,14.40
2019-06-27T03:44:13.117Z,14.40
2019-06-27T03:46:39.108Z,14.50
2019-06-27T03:49:05.110Z,14.50
2019-06-27T03:51:31.831Z,14.40
2019-06-27T03:53:57.844Z,14.50
2019-06-27T03:56:23.800Z,14.50
2019-06-27T03:59:10.220Z,14.60
2019-06-27T04:01:17.309Z,14.60
2019-06-27T04:03:43.734Z,14.60
2019-06-27T04:06:09.301Z,14.60
2019-06-27T04:08:35.291Z,14.70
2019-06-27T04:11:01.275Z,14.80
2019-06-27T04:13:27.317Z,14.80
2019-06-27T04:15:53.299Z,14.80
2019-06-27T04:18:20.061Z,14.80
2019-06-27T04:20:46.068Z,14.80
2019-06-27T04:23:12.080Z,14.70
2019-06-27T04:25:38.049Z,14.80
2019-06-27T04:28:04.064Z,14.90
2019-06-27T04:30:30.772Z,14.90
2019-06-27T04:32:56.772Z,14.90
2019-06-27T04:35:22.756Z,14.90
2019-06-27T04:37:49.483Z,15.10
2019-06-27T04:40:15.529Z,15.10
2019-06-27T04:42:41.547Z,15.20
2019-06-27T04:45:07.534Z,15.20
2019-06-27T04:47:33.495Z,15.20
2019-06-27T04:49:59.591Z,15.30
2019-06-27T04:52:26.319Z,15.20
2019-06-27T04:54:52.317Z,15.20
2019-06-27T04:57:18.298Z,15.30
2019-06-27T04:59:53.542Z,15.30
2019-06-27T05:02:10.345Z,15.30
2019-06-27T05:04:36.345Z,15.20
2019-06-27T05:07:02.310Z,15.30
2019-06-27T05:09:28.325Z,15.20
2019-06-27T05:11:55.025Z,15.40
2019-06-27T05:14:21.016Z,15.40
2019-06-27T05:16:46.987Z,15.60
2019-06-27T05:19:13.712Z,15.60
2019-06-27T05:21:39.696Z,15.60
2019-06-27T05:24:05.701Z,15.60
2019-06-27T05:26:31.711Z,15.80
2019-06-27T05:28:58.442Z,15.90
2019-06-27T05:31:25.160Z,16.00
2019-06-27T05:33:51.182Z,16.00
2019-06-27T05:36:17.201Z,16.00
2019-06-27T05:38:44.862Z,16.30
2019-06-27T05:41:12.399Z,16.20
2019-06-27T05:43:38.377Z,16.20
2019-06-27T05:46:05.118Z,16.30
2019-06-27T05:48:31.829Z,16.20
2019-06-27T05:50:57.829Z,16.20
2019-06-27T05:53:23.789Z,16.20
2019-06-27T05:55:49.817Z,16.30
2019-06-27T05:58:16.530Z,16.30
2019-06-27T06:00:43.357Z,16.40
2019-06-27T06:03:10.104Z,16.70
2019-06-27T06:05:36.100Z,16.60
2019-06-27T06:08:02.070Z,16.80
2019-06-27T06:10:28.081Z,16.60
2019-06-27T06:12:54.053Z,16.60
2019-06-27T06:15:20.799Z,16.90
2019-06-27T06:17:46.807Z,16.90
2019-06-27T06:20:12.834Z,16.80
2019-06-27T06:22:39.540Z,16.80
2019-06-27T06:25:06.307Z,16.90
2019-06-27T06:27:32.262Z,16.90
2019-06-27T06:29:58.272Z,17.00
2019-06-27T06:32:25.008Z,16.80
2019-06-27T06:34:51.742Z,16.80
2019-06-27T06:37:18.472Z,16.90
2019-06-27T06:39:44.435Z,16.90
2019-06-27T06:42:10.431Z,17.00
2019-06-27T06:44:37.140Z,16.90
2019-06-27T06:47:03.153Z,16.90
2019-06-27T06:49:29.138Z,16.90
2019-06-27T06:51:55.161Z,17.00
2019-06-27T06:54:21.139Z,16.90
2019-06-27T06:56:47.132Z,16.90
2019-06-27T06:59:13.141Z,16.80
2019-06-27T07:01:39.898Z,16.70
2019-06-27T07:04:05.866Z,16.70
2019-06-27T07:06:32.704Z,16.70
2019-06-27T07:08:58.644Z,16.70
2019-06-27T07:11:24.660Z,16.80
2019-06-27T07:13:51.379Z,16.80
2019-06-27T07:16:17.398Z,16.80
2019-06-27T07:18:43.398Z,16.90
2019-06-27T07:21:09.519Z,17.10
2019-06-27T07:23:35.468Z,17.10
2019-06-27T07:26:01.466Z,17.20
2019-06-27T07:28:27.440Z,17.00
2019-06-27T07:30:53.414Z,17.00
2019-06-27T07:33:19.376Z,17.10
2019-06-27T07:35:45.354Z,17.00
2019-06-27T07:38:11.346Z,17.20
2019-06-27T07:40:38.053Z,17.20
2019-06-27T07:43:04.824Z,17.30
2019-06-27T07:45:31.542Z,17.40
2019-06-27T07:47:57.549Z,17.40
2019-06-27T07:50:23.577Z,17.30
2019-06-27T07:52:49.609Z,17.20
2019-06-27T07:55:16.350Z,17.10
2019-06-27T07:57:42.357Z,17.10
2019-06-27T08:00:08.349Z,17.10
2019-06-27T08:02:34.338Z,17.00
2019-06-27T08:05:01.064Z,17.10
2019-06-27T08:07:27.082Z,17.00
2019-06-27T08:09:53.051Z,17.20
2019-06-27T08:12:19.054Z,17.10
2019-06-27T08:14:45.777Z,17.30
2019-06-27T08:17:11.778Z,17.30
2019-06-27T08:19:37.745Z,17.40
2019-06-27T08:22:04.481Z,17.60
2019-06-27T08:24:34.293Z,17.80
2019-06-27T08:26:57.229Z,17.80
2019-06-27T08:29:23.214Z,17.90
2019-06-27T08:31:51.804Z,17.90
2019-06-27T08:34:15.229Z,18.00
2019-06-27T08:36:41.216Z,17.90
2019-06-27T08:39:07.248Z,17.90
2019-06-27T08:41:34.007Z,17.90
2019-06-27T08:44:00.722Z,17.70
2019-06-27T08:46:29.721Z,17.70
2019-06-27T08:48:52.739Z,17.50
2019-06-27T08:51:18.695Z,17.50
2019-06-27T08:53:44.710Z,17.50
2019-06-27T08:56:10.688Z,17.40
2019-06-27T08:58:36.677Z,17.80
2019-06-27T09:01:02.687Z,18.00
2019-06-27T09:03:28.691Z,18.20
2019-06-27T09:05:54.686Z,18.20
2019-06-27T09:08:20.680Z,18.30
2019-06-27T09:10:47.394Z,18.00
2019-06-27T09:13:13.456Z,18.00
2019-06-27T09:15:39.467Z,17.90
2019-06-27T09:18:06.232Z,17.60
2019-06-27T09:20:32.217Z,17.60
2019-06-27T09:22:58.198Z,17.40
2019-06-27T09:25:24.316Z,17.40
2019-06-27T09:27:50.305Z,17.40
2019-06-27T09:30:17.055Z,17.30
2019-06-27T09:32:43.765Z,17.20
2019-06-27T09:35:09.771Z,17.20
2019-06-27T09:37:35.739Z,17.30
2019-06-27T09:40:02.504Z,17.50
2019-06-27T09:42:28.477Z,17.40
2019-06-27T09:44:54.475Z,17.70
2019-06-27T09:47:20.456Z,18.00
2019-06-27T09:49:47.216Z,18.20
2019-06-27T09:52:13.192Z,18.20
2019-06-27T09:54:39.934Z,18.00
2019-06-27T09:57:05.912Z,18.00
2019-06-27T09:59:31.908Z,17.90
2019-06-27T10:01:58.641Z,17.90
2019-06-27T10:04:25.408Z,18.00
2019-06-27T10:06:51.380Z,18.00
2019-06-27T10:09:17.392Z,18.10
2019-06-27T10:11:44.145Z,18.40
2019-06-27T10:14:10.113Z,18.40
2019-06-27T10:16:43.122Z,18.10
2019-06-27T10:19:09.127Z,17.90
2019-06-27T10:21:35.205Z,18.10
2019-06-27T10:24:01.150Z,18.10
2019-06-27T10:26:27.923Z,18.30
2019-06-27T10:28:54.019Z,18.30
2019-06-27T10:31:20.043Z,18.40
2019-06-27T10:33:46.750Z,18.70
2019-06-27T10:36:12.772Z,18.70
2019-06-27T10:38:38.743Z,19.00
2019-06-27T10:41:04.747Z,19.00
2019-06-27T10:43:30.722Z,18.90
2019-06-27T10:45:56.737Z,19.00
2019-06-27T10:48:22.724Z,19.10
2019-06-27T10:50:49.470Z,19.00
2019-06-27T10:53:16.183Z,18.90
2019-06-27T10:55:42.202Z,18.80
2019-06-27T10:58:08.186Z,18.90
2019-06-27T11:00:34.215Z,19.10
2019-06-27T11:03:14.458Z,18.90
2019-06-27T11:05:26.261Z,18.70
2019-06-27T11:07:52.257Z,18.70
2019-06-27T11:10:18.968Z,18.90
2019-06-27T11:12:45.303Z,18.90
2019-06-27T11:15:11.130Z,19.10
2019-06-27T11:17:37.131Z,19.50
2019-06-27T11:20:03.115Z,19.70
2019-06-27T11:22:29.141Z,19.40
2019-06-27T11:24:55.132Z,19.20
2019-06-27T11:27:21.926Z,19.10
2019-06-27T11:29:47.910Z,19.10
2019-06-27T11:32:14.698Z,20.00
2019-06-27T11:34:41.225Z,20.00
2019-06-27T11:37:07.223Z,20.40
2019-06-27T11:39:33.211Z,20.50
2019-06-27T11:41:59.194Z,20.20
2019-06-27T11:44:25.201Z,19.80
2019-06-27T11:46:51.220Z,19.70
2019-06-27T11:49:17.248Z,19.60
2019-06-27T11:51:43.261Z,19.60
2019-06-27T11:54:09.284Z,19.80
2019-06-27T11:56:35.268Z,19.70
2019-06-27T11:59:01.295Z,19.70
2019-06-27T12:01:27.407Z,19.50
2019-06-27T12:03:53.399Z,19.50
2019-06-27T12:06:19.385Z,19.30
2019-06-27T12:08:46.146Z,19.10
2019-06-27T12:11:12.842Z,19.30
2019-06-27T12:13:38.842Z,19.30
2019-06-27T12:16:04.825Z,19.60
2019-06-27T12:18:31.561Z,19.60
2019-06-27T12:20:58.270Z,19.60
2019-06-27T12:23:24.289Z,19.60
2019-06-27T12:25:50.262Z,19.40
2019-06-27T12:28:16.322Z,19.30
2019-06-27T12:30:42.318Z,19.10
2019-06-27T12:33:08.312Z,18.80
2019-06-27T12:35:35.052Z,18.90
2019-06-27T12:38:01.767Z,19.10
2019-06-27T12:40:27.767Z,19.10
2019-06-27T12:42:53.782Z,19.10
2019-06-27T12:45:19.815Z,19.10
2019-06-27T12:47:45.807Z,19.40
2019-06-27T12:50:11.842Z,19.60
2019-06-27T12:52:37.809Z,19.90
2019-06-27T12:55:03.808Z,19.80
2019-06-27T12:57:29.795Z,19.60
2019-06-27T12:59:55.800Z,19.50
2019-06-27T13:02:21.763Z,19.60
2019-06-27T13:04:47.762Z,19.60
2019-06-27T13:07:14.496Z,20.20
2019-06-27T13:09:41.257Z,20.00
2019-06-27T13:12:07.254Z,20.00
2019-06-27T13:14:34.069Z,19.60
2019-06-27T13:17:00.824Z,19.60
2019-06-27T13:19:26.825Z,19.60
2019-06-27T13:21:52.817Z,19.50
2019-06-27T13:24:18.838Z,19.70
2019-06-27T13:26:44.887Z,19.30
2019-06-27T13:29:10.913Z,19.40
2019-06-27T13:31:36.941Z,19.20
2019-06-27T13:34:02.911Z,19.60
2019-06-27T13:36:32.958Z,20.10
2019-06-27T13:38:55.756Z,20.10
2019-06-27T13:41:21.754Z,20.20
2019-06-27T13:43:49.365Z,20.30
2019-06-27T13:46:13.764Z,20.40
2019-06-27T13:48:39.764Z,20.50
2019-06-27T13:51:06.509Z,20.70
2019-06-27T13:53:33.242Z,20.80
2019-06-27T13:55:59.237Z,20.70
2019-06-27T13:58:25.237Z,21.00
2019-06-27T14:00:51.243Z,20.80
2019-06-27T14:03:17.205Z,20.50
2019-06-27T14:05:43.213Z,20.60
2019-06-27T14:08:09.186Z,20.80
2019-06-27T14:10:35.958Z,20.40
2019-06-27T14:13:01.955Z,20.40
2019-06-27T14:15:28.710Z,20.30
2019-06-27T14:17:54.795Z,20.20
2019-06-27T14:20:20.834Z,20.20
2019-06-27T14:22:46.831Z,20.10
2019-06-27T14:25:12.807Z,20.00
2019-06-27T14:27:38.835Z,20.20
2019-06-27T14:30:04.816Z,19.90
2019-06-27T14:32:30.867Z,19.80
2019-06-27T14:35:10.663Z,19.60
2019-06-27T14:37:23.632Z,19.60
2019-06-27T14:39:49.582Z,19.80
2019-06-27T14:42:15.611Z,19.70
2019-06-27T14:44:41.591Z,19.60
2019-06-27T14:47:07.582Z,19.50
2019-06-27T14:49:33.570Z,19.50
2019-06-27T14:51:59.567Z,19.70
2019-06-27T14:54:26.307Z,19.90
2019-06-27T14:56:53.078Z,20.00
2019-06-27T14:59:19.092Z,20.00
2019-06-27T15:01:45.104Z,19.70
2019-06-27T15:04:11.846Z,19.70
2019-06-27T15:06:37.853Z,19.60
2019-06-27T15:09:03.850Z,19.50
2019-06-27T15:11:29.814Z,19.60
2019-06-27T15:13:56.544Z,19.00
2019-06-27T15:16:22.516Z,19.00
2019-06-27T15:18:48.532Z,18.90
2019-06-27T15:21:14.520Z,18.80
2019-06-27T15:23:40.513Z,18.90
2019-06-27T15:26:06.493Z,19.10
2019-06-27T15:28:34.246Z,19.10
2019-06-27T15:30:58.559Z,19.30
2019-06-27T15:33:24.563Z,19.40
2019-06-27T15:35:52.382Z,19.70
2019-06-27T15:38:16.584Z,19.60
2019-06-27T15:40:42.613Z,19.80
2019-06-27T15:43:09.383Z,19.30
2019-06-27T15:45:35.405Z,19.30
2019-06-27T15:48:01.427Z,19.50
2019-06-27T15:50:27.437Z,19.30
2019-06-27T15:52:54.174Z,19.10
2019-06-27T15:55:20.919Z,19.20
2019-06-27T15:57:47.616Z,19.20
2019-06-27T16:00:13.624Z,19.20
2019-06-27T16:02:39.671Z,19.20
2019-06-27T16:05:05.783Z,19.20
2019-06-27T16:07:32.431Z,19.00
2019-06-27T16:09:58.431Z,19.00
2019-06-27T16:12:24.399Z,18.90
2019-06-27T16:14:51.139Z,19.00
2019-06-27T16:17:17.120Z,19.00
2019-06-27T16:19:43.141Z,18.90
2019-06-27T16:22:09.138Z,19.00
2019-06-27T16:24:35.151Z,19.00
2019-06-27T16:27:01.865Z,18.50
2019-06-27T16:29:27.872Z,18.50
2019-06-27T16:31:53.869Z,18.30
2019-06-27T16:34:19.917Z,18.30
2019-06-27T16:36:45.914Z,18.30
2019-06-27T16:39:11.912Z,18.30
2019-06-27T16:41:38.628Z,18.30
2019-06-27T16:44:04.633Z,18.30
2019-06-27T16:46:30.662Z,18.30
2019-06-27T16:48:56.692Z,18.30
2019-06-27T16:51:22.684Z,18.40
2019-06-27T16:53:48.679Z,18.40
2019-06-27T16:56:14.662Z,18.30
2019-06-27T16:58:41.421Z,18.40
2019-06-27T17:01:08.234Z,18.20
2019-06-27T17:03:34.293Z,18.20
2019-06-27T17:06:01.049Z,18.00
2019-06-27T17:08:27.094Z,18.00
2019-06-27T17:10:53.114Z,17.90
2019-06-27T17:13:19.131Z,18.00
2019-06-27T17:15:45.154Z,17.90
2019-06-27T17:18:11.128Z,17.90
2019-06-27T17:20:37.132Z,17.90
2019-06-27T17:23:05.410Z,18.00
2019-06-27T17:25:29.161Z,18.00
2019-06-27T17:27:55.143Z,18.00
2019-06-27T17:30:21.158Z,17.80
2019-06-27T17:32:47.187Z,17.60
2019-06-27T17:35:13.931Z,17.60
2019-06-27T17:37:39.928Z,17.50
2019-06-27T17:40:09.053Z,17.50
2019-06-27T17:42:32.053Z,17.50
2019-06-27T17:44:58.043Z,17.60
2019-06-27T17:47:24.062Z,17.70
2019-06-27T17:49:50.772Z,17.50
2019-06-27T17:52:16.759Z,17.50
2019-06-27T17:54:42.715Z,17.50
2019-06-27T17:57:08.710Z,17.50
2019-06-27T17:59:34.680Z,17.30
2019-06-27T18:02:00.668Z,17.30
2019-06-27T18:04:26.633Z,17.40
2019-06-27T18:06:52.651Z,17.40
2019-06-27T18:09:19.371Z,17.20
2019-06-27T18:11:45.370Z,17.20
2019-06-27T18:14:11.356Z,17.10
2019-06-27T18:16:38.103Z,17.10
2019-06-27T18:19:04.107Z,17.10
2019-06-27T18:21:30.106Z,17.10
2019-06-27T18:23:56.076Z,16.90
2019-06-27T18:26:22.121Z,17.00
2019-06-27T18:28:48.085Z,17.00
2019-06-27T18:31:14.081Z,16.90
2019-06-27T18:33:40.095Z,16.80
2019-06-27T18:36:06.105Z,16.80
2019-06-27T18:38:32.107Z,16.70
2019-06-27T18:40:58.835Z,16.40
2019-06-27T18:43:25.595Z,16.40
2019-06-27T18:45:52.464Z,16.50
2019-06-27T18:48:19.246Z,16.40
2019-06-27T18:50:45.263Z,16.40
2019-06-27T18:53:11.329Z,16.40
2019-06-27T18:55:38.109Z,16.50
2019-06-27T18:58:04.132Z,16.50
2019-06-27T19:00:30.129Z,16.50
2019-06-27T19:02:56.147Z,16.50
2019-06-27T19:05:22.176Z,16.40
2019-06-27T19:07:48.221Z,16.40
2019-06-27T19:10:14.203Z,16.50
2019-06-27T19:12:40.272Z,16.40
2019-06-27T19:15:06.274Z,16.30
2019-06-27T19:17:32.293Z,16.30
2019-06-27T19:19:59.093Z,16.20
2019-06-27T19:22:25.096Z,16.20
2019-06-27T19:24:51.803Z,16.40
2019-06-27T19:27:17.804Z,16.30
2019-06-27T19:29:44.546Z,16.40
2019-06-27T19:32:11.263Z,16.50
2019-06-27T19:34:37.278Z,16.50
2019-06-27T19:37:03.273Z,16.40
2019-06-27T19:39:29.295Z,16.30
2019-06-27T19:41:57.132Z,16.30
2019-06-27T19:44:22.082Z,16.30
2019-06-27T19:46:48.063Z,16.30
2019-06-27T19:49:14.786Z,16.30
2019-06-27T19:51:41.487Z,16.20
2019-06-27T19:54:07.514Z,16.10
2019-06-27T19:56:33.545Z,16.10
2019-06-27T19:59:00.318Z,16.10
2019-06-27T20:01:27.024Z,16.00
2019-06-27T20:03:53.046Z,16.00
2019-06-27T20:06:19.036Z,16.00
2019-06-27T20:08:45.070Z,16.00
2019-06-27T20:11:11.048Z,16.00
2019-06-27T20:13:37.817Z,15.90
2019-06-27T20:16:03.806Z,15.90
2019-06-27T20:18:29.956Z,15.90
2019-06-27T20:20:56.034Z,15.90
2019-06-27T20:23:22.245Z,15.90
2019-06-27T20:25:48.254Z,15.90
2019-06-27T20:28:14.253Z,16.00
2019-06-27T20:30:40.287Z,15.90
2019-06-27T20:33:06.280Z,15.90
2019-06-27T20:35:33.046Z,15.80
2019-06-27T20:37:59.749Z,15.80
2019-06-27T20:40:25.756Z,15.80
2019-06-27T20:42:51.761Z,15.80
2019-06-27T20:45:17.754Z,15.70
2019-06-27T20:47:43.746Z,15.60
2019-06-27T20:50:09.737Z,15.60
2019-06-27T20:52:35.713Z,15.60
2019-06-27T20:55:01.717Z,15.60
2019-06-27T20:57:27.744Z,15.60
2019-06-27T20:59:54.494Z,15.60
2019-06-27T21:02:20.460Z,15.60
2019-06-27T21:04:46.495Z,15.60
2019-06-27T21:07:12.475Z,15.60
2019-06-27T21:09:39.230Z,15.40
2019-06-27T21:12:05.247Z,15.50
2019-06-27T21:14:31.995Z,15.40
2019-06-27T21:16:58.693Z,15.50
2019-06-27T21:19:24.710Z,15.50
2019-06-27T21:21:50.668Z,15.60
2019-06-27T21:24:17.396Z,15.50
2019-06-27T21:26:44.143Z,15.40
2019-06-27T21:29:10.886Z,15.40
2019-06-27T21:31:37.649Z,15.50
2019-06-27T21:34:03.670Z,15.40
2019-06-27T21:36:29.665Z,15.40
2019-06-27T21:39:07.135Z,15.50
2019-06-27T21:41:21.687Z,15.50
2019-06-27T21:43:47.667Z,15.50
2019-06-27T21:46:13.660Z,15.40
2019-06-27T21:48:39.642Z,15.40
2019-06-27T21:51:05.727Z,15.50
2019-06-27T21:53:31.717Z,15.50
2019-06-27T21:55:58.489Z,15.30
2019-06-27T21:58:25.197Z,15.40
2019-06-27T22:00:51.175Z,15.30
2019-06-27T22:03:17.169Z,15.40
2019-06-27T22:05:43.183Z,15.40
2019-06-27T22:08:09.903Z,15.30
2019-06-27T22:10:35.997Z,15.30
2019-06-27T22:13:02.219Z,15.30
2019-06-27T22:15:28.282Z,15.40
2019-06-27T22:17:54.246Z,15.30
2019-06-27T22:20:20.960Z,15.30
2019-06-27T22:22:46.955Z,15.30
2019-06-27T22:25:12.925Z,15.30
2019-06-27T22:27:39.657Z,15.40
2019-06-27T22:30:05.653Z,15.40
2019-06-27T22:32:31.650Z,15.30
2019-06-27T22:34:57.616Z,15.30
2019-06-27T22:37:23.594Z,15.30
2019-06-27T22:39:49.553Z,15.30
2019-06-27T22:42:15.572Z,15.30
2019-06-27T22:44:41.545Z,15.30
2019-06-27T22:47:07.542Z,15.30
2019-06-27T22:49:34.296Z,15.10
2019-06-27T22:52:01.036Z,15.10
2019-06-27T22:54:27.106Z,15.10
2019-06-27T22:56:53.108Z,15.00
2019-06-27T22:59:19.830Z,15.20
2019-06-27T23:01:45.853Z,15.20
2019-06-27T23:04:12.559Z,15.30
2019-06-27T23:06:38.556Z,15.30
2019-06-27T23:09:04.519Z,15.20
2019-06-27T23:11:31.283Z,15.20
2019-06-27T23:13:57.258Z,15.20
2019-06-27T23:16:23.241Z,15.20
2019-06-27T23:18:49.250Z,15.30
2019-06-27T23:21:15.226Z,15.20
2019-06-27T23:23:41.216Z,15.20
2019-06-27T23:26:07.183Z,15.30
2019-06-27T23:28:33.170Z,15.20
2019-06-27T23:30:59.142Z,15.40
2019-06-27T23:33:25.917Z,15.20
2019-06-27T23:35:51.917Z,15.10
2019-06-27T23:38:18.639Z,15.10
2019-06-27T23:40:44.612Z,15.00
2019-06-27T23:43:10.600Z,15.10
2019-06-27T23:45:36.593Z,15.10
2019-06-27T23:48:03.366Z,15.00
2019-06-27T23:50:29.374Z,14.90
2019-06-27T23:52:55.356Z,14.90
2019-06-27T23:55:21.331Z,15.00
2019-06-27T23:57:48.103Z,14.90
